createdAt,value
2018-07-27T00:01:45.703Z,6.17
2018-07-27T00:04:14.009Z,6.40
2018-07-27T00:06:42.279Z,6.27
2018-07-27T00:09:12.434Z,6.73
2018-07-27T00:11:41.153Z,5.80
2018-07-27T00:14:09.451Z,6.07
2018-07-27T00:16:37.930Z,5.93
2018-07-27T00:19:06.058Z,6.53
2018-07-27T00:21:34.755Z,6.07
2018-07-27T00:24:03.053Z,5.83
2018-07-27T00:26:31.379Z,6.20
2018-07-27T00:28:59.646Z,6.60
2018-07-27T00:31:27.921Z,6.53
2018-07-27T00:36:47.015Z,6.03
2018-07-27T00:39:15.295Z,6.10
2018-07-27T00:41:43.588Z,6.07
2018-07-27T00:44:11.860Z,5.93
2018-07-27T00:46:40.140Z,5.87
2018-07-27T00:49:08.419Z,6.50
2018-07-27T00:51:36.690Z,6.40
2018-07-27T00:54:05.095Z,6.17
2018-07-27T00:56:33.395Z,6.30
2018-07-27T00:59:01.667Z,6.10
2018-07-27T01:01:29.934Z,6.87
2018-07-27T01:03:58.367Z,6.87
2018-07-27T01:06:26.704Z,6.30
2018-07-27T01:08:54.991Z,6.27
2018-07-27T01:11:23.262Z,6.37
2018-07-27T01:13:51.701Z,6.40
2018-07-27T01:16:19.999Z,6.17
2018-07-27T01:18:48.280Z,6.30
2018-07-27T01:21:18.372Z,6.80
2018-07-27T01:23:46.656Z,6.40
2018-07-27T01:26:14.930Z,6.00
2018-07-27T01:28:43.258Z,6.17
2018-07-27T01:31:11.546Z,6.10
2018-07-27T01:33:39.859Z,6.60
2018-07-27T01:36:08.140Z,6.27
2018-07-27T01:38:36.419Z,6.67
2018-07-27T01:41:04.760Z,6.67
2018-07-27T01:43:33.298Z,7.00
2018-07-27T01:46:01.582Z,6.70
2018-07-27T01:48:29.856Z,6.80
2018-07-27T01:50:58.186Z,6.53
2018-07-27T01:53:26.486Z,6.83
2018-07-27T01:55:54.820Z,6.87
2018-07-27T01:58:23.105Z,7.47
2018-07-27T02:00:51.402Z,6.90
2018-07-27T02:03:19.507Z,7.33
2018-07-27T02:05:47.774Z,7.07
2018-07-27T02:08:16.051Z,7.40
2018-07-27T02:10:44.343Z,7.03
2018-07-27T02:13:12.655Z,6.60
2018-07-27T02:15:41.482Z,6.73
2018-07-27T02:18:09.774Z,7.00
2018-07-27T02:20:38.082Z,6.57
2018-07-27T02:23:06.415Z,6.70
2018-07-27T02:25:34.682Z,6.27
2018-07-27T02:28:03.123Z,6.47
2018-07-27T02:30:31.398Z,6.70
2018-07-27T02:32:59.685Z,6.40
2018-07-27T02:35:27.968Z,5.97
2018-07-27T02:37:56.363Z,6.93
2018-07-27T02:40:24.647Z,7.13
2018-07-27T02:42:52.918Z,6.90
2018-07-27T02:45:21.190Z,6.93
2018-07-27T02:47:50.199Z,7.13
2018-07-27T02:50:19.633Z,7.33
2018-07-27T02:52:47.947Z,6.80
2018-07-27T02:55:16.347Z,7.30
2018-07-27T02:57:44.619Z,6.90
2018-07-27T03:00:12.890Z,7.30
2018-07-27T03:02:41.179Z,7.60
2018-07-27T03:05:09.494Z,7.20
2018-07-27T03:07:37.867Z,7.90
2018-07-27T03:10:06.651Z,7.43
2018-07-27T03:12:34.963Z,7.20
2018-07-27T03:15:03.294Z,7.73
2018-07-27T03:17:31.548Z,7.87
2018-07-27T03:19:59.808Z,7.23
2018-07-27T03:22:28.063Z,7.20
2018-07-27T03:24:56.317Z,7.27
2018-07-27T03:27:24.595Z,7.87
2018-07-27T03:29:52.931Z,7.70
2018-07-27T03:32:21.192Z,7.10
2018-07-27T03:34:49.449Z,7.40
2018-07-27T03:37:17.709Z,7.63
2018-07-27T03:39:45.717Z,7.20
2018-07-27T03:42:14.097Z,6.87
2018-07-27T03:44:42.253Z,6.97
2018-07-27T03:47:10.517Z,7.13
2018-07-27T03:49:38.869Z,7.17
2018-07-27T03:52:07.159Z,7.20
2018-07-27T03:54:35.435Z,7.20
2018-07-27T03:57:03.691Z,7.43
2018-07-27T03:59:31.943Z,7.40
2018-07-27T04:02:00.293Z,7.40
2018-07-27T04:04:28.549Z,7.60
2018-07-27T04:06:56.843Z,7.53
2018-07-27T04:09:24.955Z,7.87
2018-07-27T04:11:53.231Z,8.23
2018-07-27T04:14:21.547Z,7.73
2018-07-27T04:16:54.261Z,7.63
2018-07-27T04:19:22.630Z,7.43
2018-07-27T04:21:50.876Z,8.13
2018-07-27T04:24:19.128Z,7.30
2018-07-27T04:26:47.450Z,8.03
2018-07-27T04:29:16.446Z,7.87
2018-07-27T04:31:44.723Z,7.80
2018-07-27T04:34:12.975Z,7.10
2018-07-27T04:36:41.219Z,7.87
2018-07-27T04:39:10.626Z,7.80
2018-07-27T04:41:38.986Z,7.27
2018-07-27T04:44:07.340Z,8.20
2018-07-27T04:46:35.635Z,8.17
2018-07-27T04:49:03.904Z,7.80
2018-07-27T04:51:32.372Z,8.57
2018-07-27T04:54:00.626Z,8.33
2018-07-27T04:56:33.910Z,8.90
2018-07-27T04:59:02.241Z,8.97
2018-07-27T05:01:30.529Z,7.67
2018-07-27T05:03:59.002Z,8.30
2018-07-27T05:06:27.262Z,8.80
2018-07-27T05:09:01.057Z,8.67
2018-07-27T05:11:29.448Z,9.00
2018-07-27T05:13:57.487Z,8.50
2018-07-27T05:16:25.738Z,9.60
2018-07-27T05:18:54.037Z,9.63
2018-07-27T05:21:22.318Z,9.07
2018-07-27T05:23:50.617Z,9.77
2018-07-27T05:26:18.639Z,10.53
2018-07-27T05:28:46.926Z,10.37
2018-07-27T05:31:15.191Z,11.37
2018-07-27T05:33:43.459Z,11.07
2018-07-27T05:36:11.735Z,10.37
2018-07-27T05:38:40.112Z,10.33
2018-07-27T05:41:08.467Z,10.50
2018-07-27T05:43:37.034Z,11.30
2018-07-27T05:46:05.742Z,11.50
2018-07-27T05:48:34.099Z,11.77
2018-07-27T05:51:02.347Z,11.50
2018-07-27T05:53:30.771Z,12.27
2018-07-27T05:55:59.066Z,11.23
2018-07-27T05:58:27.359Z,11.37
2018-07-27T06:00:55.665Z,10.73
2018-07-27T06:03:23.944Z,10.87
2018-07-27T06:05:52.227Z,9.70
2018-07-27T06:08:20.507Z,9.63
2018-07-27T06:10:48.754Z,9.70
2018-07-27T06:13:17.073Z,9.53
2018-07-27T06:15:45.348Z,9.77
2018-07-27T06:18:13.729Z,9.07
2018-07-27T06:20:41.980Z,8.73
2018-07-27T06:23:10.286Z,9.30
2018-07-27T06:25:38.651Z,8.73
2018-07-27T06:28:06.983Z,7.43
2018-07-27T06:30:35.247Z,8.10
2018-07-27T06:33:03.530Z,7.97
2018-07-27T06:35:31.778Z,8.33
2018-07-27T06:38:12.421Z,8.63
2018-07-27T06:40:40.705Z,8.37
2018-07-27T06:43:09.789Z,8.97
2018-07-27T06:45:38.782Z,8.10
2018-07-27T06:48:10.126Z,8.10
2018-07-27T06:50:39.513Z,9.20
2018-07-27T06:53:08.381Z,10.23
2018-07-27T06:55:36.608Z,9.87
2018-07-27T06:58:05.147Z,9.87
2018-07-27T07:00:33.388Z,7.77
2018-07-27T07:03:01.642Z,11.40
2018-07-27T07:05:29.901Z,7.97
2018-07-27T07:07:58.181Z,8.60
2018-07-27T07:10:26.469Z,8.20
2018-07-27T07:12:56.050Z,8.23
2018-07-27T07:15:25.133Z,7.07
2018-07-27T07:17:54.566Z,6.70
2018-07-27T07:20:23.542Z,6.93
2018-07-27T07:22:51.813Z,5.87
2018-07-27T07:25:20.177Z,6.13
2018-07-27T07:27:48.361Z,6.97
2018-07-27T07:30:16.632Z,7.17
2018-07-27T07:32:44.905Z,6.80
2018-07-27T07:35:13.189Z,6.58
2018-07-27T07:37:41.461Z,6.70
2018-07-27T07:40:10.445Z,5.95
2018-07-27T07:42:39.482Z,6.55
2018-07-27T07:45:10.774Z,6.15
2018-07-27T07:47:39.706Z,6.03
2018-07-27T07:50:08.475Z,6.17
2018-07-27T07:52:37.582Z,5.60
2018-07-27T07:55:06.030Z,5.47
2018-07-27T07:57:34.286Z,5.80
2018-07-27T08:00:02.588Z,5.47
2018-07-27T08:02:30.889Z,6.17
2018-07-27T08:04:59.185Z,6.40
2018-07-27T08:07:27.453Z,5.72
2018-07-27T08:09:55.740Z,6.37
2018-07-27T08:12:25.145Z,6.20
2018-07-27T08:17:43.989Z,6.28
2018-07-27T08:20:12.268Z,6.05
2018-07-27T08:22:40.582Z,5.90
2018-07-27T08:25:09.595Z,5.92
2018-07-27T08:27:38.396Z,5.97
2018-07-27T08:30:06.693Z,6.00
2018-07-27T08:32:34.969Z,6.12
2018-07-27T08:35:03.745Z,5.62
2018-07-27T08:37:32.234Z,5.50
2018-07-27T08:40:01.642Z,5.70
2018-07-27T08:42:29.969Z,5.65
2018-07-27T08:44:58.485Z,5.47
2018-07-27T08:47:34.975Z,6.03
2018-07-27T08:50:04.406Z,5.40
2018-07-27T08:52:32.717Z,5.42
2018-07-27T08:55:01.054Z,5.50
2018-07-27T08:57:29.896Z,6.62
2018-07-27T08:59:58.168Z,5.97
2018-07-27T09:02:26.465Z,5.55
2018-07-27T09:04:55.798Z,5.62
2018-07-27T09:07:24.729Z,5.67
2018-07-27T09:09:54.774Z,5.53
2018-07-27T09:12:23.402Z,5.65
2018-07-27T09:14:51.768Z,5.70
2018-07-27T09:17:21.185Z,5.60
2018-07-27T09:19:49.433Z,5.62
2018-07-27T09:22:17.696Z,5.42
2018-07-27T09:24:46.141Z,4.67
2018-07-27T09:27:14.515Z,5.10
2018-07-27T09:29:43.479Z,5.12
2018-07-27T09:32:12.161Z,4.42
2018-07-27T09:34:40.418Z,5.50
2018-07-27T09:37:09.437Z,5.03
2018-07-27T09:39:38.576Z,5.58
2018-07-27T09:42:08.220Z,5.03
2018-07-27T09:44:38.444Z,4.92
2018-07-27T09:47:08.074Z,5.00
2018-07-27T09:49:36.752Z,5.15
2018-07-27T09:52:05.496Z,4.95
2018-07-27T09:54:34.310Z,5.12
2018-07-27T09:57:03.667Z,5.30
2018-07-27T09:59:32.408Z,5.10
2018-07-27T10:02:01.293Z,5.30
2018-07-27T10:04:30.044Z,5.22
2018-07-27T10:07:00.446Z,5.53
2018-07-27T10:09:29.179Z,5.42
2018-07-27T10:11:58.176Z,5.30
2018-07-27T10:14:26.914Z,4.90
2018-07-27T10:16:56.747Z,5.17
2018-07-27T10:19:26.489Z,4.95
2018-07-27T10:21:55.780Z,4.87
2018-07-27T10:24:27.053Z,5.35
2018-07-27T10:26:56.287Z,5.35
2018-07-27T10:29:25.722Z,5.67
2018-07-27T10:31:54.667Z,5.45
2018-07-27T10:34:23.765Z,5.58
2018-07-27T10:36:52.042Z,5.53
2018-07-27T10:39:20.365Z,5.37
2018-07-27T10:41:48.855Z,5.55
2018-07-27T10:44:18.468Z,6.20
2018-07-27T10:46:47.144Z,5.40
2018-07-27T10:49:15.757Z,5.30
2018-07-27T10:51:45.066Z,5.55
2018-07-27T10:54:13.313Z,5.03
2018-07-27T10:56:41.618Z,5.47
2018-07-27T10:59:10.187Z,5.35
2018-07-27T11:01:40.341Z,5.40
2018-07-27T11:04:09.184Z,5.37
2018-07-27T11:06:39.170Z,5.58
2018-07-27T11:09:10.676Z,5.62
2018-07-27T11:11:40.506Z,5.33
2018-07-27T11:14:11.242Z,6.05
2018-07-27T11:16:40.413Z,5.87
2018-07-27T11:19:09.480Z,5.87
2018-07-27T11:21:38.647Z,5.95
2018-07-27T11:24:08.428Z,5.30
2018-07-27T11:26:36.732Z,5.53
2018-07-27T11:29:04.968Z,5.70
2018-07-27T11:31:33.213Z,5.30
2018-07-27T11:34:01.581Z,5.50
2018-07-27T11:36:29.845Z,5.50
2018-07-27T11:38:58.121Z,5.50
2018-07-27T11:41:26.494Z,5.40
2018-07-27T11:43:55.828Z,5.65
2018-07-27T11:46:25.262Z,5.87
2018-07-27T11:48:55.533Z,5.53
2018-07-27T11:51:25.396Z,5.58
2018-07-27T11:53:55.244Z,5.65
2018-07-27T11:56:24.002Z,5.42
2018-07-27T11:58:53.819Z,5.58
2018-07-27T12:01:22.352Z,5.55
2018-07-27T12:03:51.161Z,5.60
2018-07-27T12:06:20.372Z,5.60
2018-07-27T12:08:48.853Z,5.83
2018-07-27T12:11:17.128Z,5.37
2018-07-27T12:13:45.424Z,5.53
2018-07-27T12:16:14.157Z,5.67
2018-07-27T12:18:51.573Z,5.30
2018-07-27T12:21:19.986Z,5.55
2018-07-27T12:23:48.584Z,5.42
2018-07-27T12:26:16.902Z,6.00
2018-07-27T12:28:46.064Z,5.15
2018-07-27T12:31:14.942Z,5.22
2018-07-27T12:33:43.953Z,5.55
2018-07-27T12:36:12.997Z,5.40
2018-07-27T12:38:41.304Z,5.45
2018-07-27T12:41:10.425Z,5.03
2018-07-27T12:43:39.425Z,5.70
2018-07-27T12:46:08.794Z,5.50
2018-07-27T12:48:38.852Z,5.17
2018-07-27T12:51:07.860Z,4.97
2018-07-27T12:53:36.651Z,5.17
2018-07-27T12:56:05.501Z,5.25
2018-07-27T12:58:34.186Z,5.40
2018-07-27T13:01:04.906Z,5.22
2018-07-27T13:03:33.169Z,5.05
2018-07-27T13:06:01.779Z,5.28
2018-07-27T13:08:30.769Z,5.22
2018-07-27T13:10:59.177Z,5.53
2018-07-27T13:13:27.501Z,4.50
2018-07-27T13:15:56.268Z,5.90
2018-07-27T13:18:26.408Z,6.10
2018-07-27T13:20:56.872Z,4.80
2018-07-27T13:23:27.021Z,5.58
2018-07-27T13:28:44.957Z,5.87
2018-07-27T13:31:14.849Z,5.78
2018-07-27T13:34:01.526Z,5.67
2018-07-27T13:36:30.475Z,5.50
2018-07-27T13:38:59.490Z,5.30
2018-07-27T13:41:28.609Z,6.28
2018-07-27T13:44:10.700Z,5.58
2018-07-27T13:46:39.806Z,5.83
2018-07-27T13:49:08.183Z,6.17
2018-07-27T13:51:36.507Z,5.80
2018-07-27T13:54:06.122Z,5.50
2018-07-27T13:56:34.541Z,5.25
2018-07-27T13:59:02.814Z,5.17
2018-07-27T14:01:31.090Z,5.35
2018-07-27T14:03:59.160Z,5.75
2018-07-27T14:06:28.292Z,6.20
2018-07-27T14:08:56.968Z,5.30
2018-07-27T14:11:27.246Z,5.20
2018-07-27T14:13:56.495Z,5.55
2018-07-27T14:17:12.933Z,5.30
2018-07-27T14:19:41.461Z,5.22
2018-07-27T14:22:10.454Z,5.15
2018-07-27T14:24:39.426Z,5.20
2018-07-27T14:27:08.553Z,5.25
2018-07-27T14:29:36.840Z,4.80
2018-07-27T14:34:56.395Z,4.85
2018-07-27T14:37:25.657Z,4.60
2018-07-27T14:39:55.569Z,4.58
2018-07-27T14:42:25.381Z,4.60
2018-07-27T14:44:54.477Z,4.30
2018-07-27T14:47:22.624Z,4.15
2018-07-27T14:49:51.553Z,4.00
2018-07-27T14:52:19.889Z,4.70
2018-07-27T14:54:48.147Z,4.30
2018-07-27T14:57:16.457Z,4.05
2018-07-27T14:59:44.771Z,4.03
2018-07-27T15:02:13.304Z,4.40
2018-07-27T15:04:41.979Z,3.83
2018-07-27T15:07:11.591Z,3.95
2018-07-27T15:09:41.326Z,4.05
2018-07-27T15:12:11.281Z,3.85
2018-07-27T15:14:41.290Z,4.33
2018-07-27T15:17:10.886Z,4.60
2018-07-27T15:19:39.229Z,4.60
2018-07-27T15:22:08.222Z,4.30
2018-07-27T15:24:36.718Z,4.62
2018-07-27T15:27:05.302Z,5.50
2018-07-27T15:29:34.404Z,5.67
2018-07-27T15:32:03.490Z,5.17
2018-07-27T15:34:31.765Z,4.83
2018-07-27T15:37:00.620Z,5.35
2018-07-27T15:39:29.623Z,5.08
2018-07-27T15:41:58.594Z,5.50
2018-07-27T15:44:27.862Z,5.22
2018-07-27T15:46:56.740Z,5.28
2018-07-27T15:49:27.133Z,5.15
2018-07-27T15:51:56.583Z,4.95
2018-07-27T15:57:17.012Z,4.80
2018-07-27T15:59:46.020Z,5.60
2018-07-27T16:02:14.972Z,5.33
2018-07-27T16:04:43.674Z,5.45
2018-07-27T16:07:12.317Z,5.72
2018-07-27T16:09:42.074Z,5.62
2018-07-27T16:12:10.406Z,5.42
2018-07-27T16:14:39.433Z,5.65
2018-07-27T16:17:08.419Z,6.28
2018-07-27T16:19:37.468Z,5.42
2018-07-27T16:22:06.499Z,5.42
2018-07-27T16:24:35.585Z,5.37
2018-07-27T16:27:04.402Z,5.40
2018-07-27T16:29:33.552Z,5.78
2018-07-27T16:32:02.455Z,5.40
2018-07-27T16:34:31.562Z,5.37
2018-07-27T16:37:00.522Z,5.60
2018-07-27T16:39:29.267Z,5.20
2018-07-27T16:41:58.589Z,5.45
2018-07-27T16:44:27.424Z,5.47
2018-07-27T16:46:56.323Z,6.08
2018-07-27T16:49:25.239Z,5.45
2018-07-27T16:51:54.155Z,5.67
2018-07-27T16:54:23.442Z,5.75
2018-07-27T16:56:52.441Z,6.28
2018-07-27T16:59:21.457Z,5.58
2018-07-27T17:01:50.674Z,6.05
2018-07-27T17:04:19.860Z,6.17
2018-07-27T17:06:48.906Z,5.85
2018-07-27T17:09:17.720Z,6.12
2018-07-27T17:11:46.671Z,6.28
2018-07-27T17:14:15.242Z,6.45
2018-07-27T17:16:44.260Z,5.67
2018-07-27T17:19:13.495Z,6.15
2018-07-27T17:21:44.152Z,6.20
2018-07-27T17:24:12.575Z,6.00
2018-07-27T17:26:41.428Z,6.40
2018-07-27T17:29:10.716Z,6.28
2018-07-27T17:31:39.797Z,6.15
2018-07-27T17:34:08.976Z,6.37
2018-07-27T17:36:37.943Z,6.67
2018-07-27T17:41:58.094Z,6.20
2018-07-27T17:44:27.269Z,6.07
2018-07-27T17:46:55.649Z,6.62
2018-07-27T17:49:24.244Z,6.40
2018-07-27T17:51:52.524Z,6.03
2018-07-27T17:54:20.808Z,6.55
2018-07-27T17:56:57.734Z,6.10
2018-07-27T17:59:26.107Z,6.10
2018-07-27T18:01:54.382Z,6.13
2018-07-27T18:04:22.724Z,6.30
2018-07-27T18:06:51.007Z,5.93
2018-07-27T18:09:19.262Z,6.17
2018-07-27T18:11:47.559Z,6.17
2018-07-27T18:14:15.978Z,6.17
2018-07-27T18:16:44.232Z,6.33
2018-07-27T18:19:12.500Z,6.47
2018-07-27T18:21:40.816Z,6.10
2018-07-27T18:24:09.207Z,6.40
2018-07-27T18:26:37.720Z,6.00
2018-07-27T18:29:06.094Z,6.20
2018-07-27T18:31:34.390Z,6.40
2018-07-27T18:34:02.750Z,6.37
2018-07-27T18:36:31.127Z,6.00
2018-07-27T18:38:59.446Z,6.67
2018-07-27T18:41:28.075Z,6.40
2018-07-27T18:43:56.519Z,6.50
2018-07-27T18:46:24.974Z,7.00
2018-07-27T18:48:53.504Z,6.20
2018-07-27T18:51:21.865Z,6.30
2018-07-27T18:53:50.994Z,6.60
2018-07-27T18:56:20.046Z,6.53
2018-07-27T18:58:48.410Z,6.10
2018-07-27T19:01:16.886Z,6.10
2018-07-27T19:03:45.924Z,6.13
2018-07-27T19:06:14.868Z,6.47
2018-07-27T19:08:43.669Z,6.67
2018-07-27T19:11:12.857Z,6.50
2018-07-27T19:13:41.635Z,6.47
2018-07-27T19:16:11.142Z,6.83
2018-07-27T19:18:40.208Z,7.03
2018-07-27T19:21:09.605Z,7.07
2018-07-27T19:23:38.876Z,7.03
2018-07-27T19:26:07.586Z,6.90
2018-07-27T19:28:36.600Z,7.03
2018-07-27T19:31:05.508Z,6.80
2018-07-27T19:33:34.478Z,7.27
2018-07-27T19:36:03.580Z,7.30
2018-07-27T19:38:32.497Z,7.43
2018-07-27T19:41:01.565Z,7.67
2018-07-27T19:43:30.512Z,6.60
2018-07-27T19:45:59.567Z,7.23
2018-07-27T19:48:28.028Z,7.60
2018-07-27T19:50:57.523Z,7.70
2018-07-27T19:53:26.259Z,7.73
2018-07-27T19:55:55.737Z,6.97
2018-07-27T19:58:24.611Z,8.00
2018-07-27T20:03:44.629Z,6.90
2018-07-27T20:06:13.564Z,7.47
2018-07-27T20:08:41.903Z,7.60
2018-07-27T20:11:10.360Z,7.57
2018-07-27T20:13:38.807Z,8.23
2018-07-27T20:16:07.083Z,7.90
2018-07-27T20:18:35.453Z,8.00
2018-07-27T20:21:03.864Z,7.73
2018-07-27T20:23:32.150Z,8.07
2018-07-27T20:26:00.583Z,8.13
2018-07-27T20:28:29.014Z,7.37
2018-07-27T20:30:57.362Z,8.57
2018-07-27T20:33:25.655Z,7.97
2018-07-27T20:35:53.958Z,8.20
2018-07-27T20:38:22.259Z,8.23
2018-07-27T20:40:50.700Z,8.63
2018-07-27T20:43:19.007Z,8.37
2018-07-27T20:45:47.285Z,8.33
2018-07-27T20:48:15.687Z,8.30
2018-07-27T20:50:44.023Z,8.03
2018-07-27T20:53:12.430Z,8.00
2018-07-27T20:55:40.758Z,8.23
2018-07-27T20:58:09.049Z,8.60
2018-07-27T21:00:37.302Z,8.83
2018-07-27T21:03:05.632Z,8.77
2018-07-27T21:05:33.898Z,8.40
2018-07-27T21:08:02.182Z,9.20
2018-07-27T21:10:30.221Z,9.10
2018-07-27T21:12:58.499Z,8.83
2018-07-27T21:15:26.807Z,9.57
2018-07-27T21:17:55.196Z,8.73
2018-07-27T21:20:23.259Z,9.10
2018-07-27T21:22:51.648Z,8.83
2018-07-27T21:25:19.926Z,9.83
2018-07-27T21:27:48.259Z,9.33
2018-07-27T21:30:16.591Z,9.93
2018-07-27T21:33:04.948Z,9.23
2018-07-27T21:35:33.223Z,9.47
2018-07-27T21:38:01.518Z,10.20
2018-07-27T21:40:29.792Z,9.40
2018-07-27T21:42:58.063Z,9.97
2018-07-27T21:45:26.361Z,9.10
2018-07-27T21:47:54.690Z,9.30
2018-07-27T21:50:22.970Z,10.17
2018-07-27T21:52:51.372Z,9.27
2018-07-27T21:55:19.752Z,10.20
2018-07-27T21:57:48.099Z,9.60
2018-07-27T22:00:16.365Z,10.10
2018-07-27T22:02:44.672Z,9.63
2018-07-27T22:05:12.949Z,10.47
2018-07-27T22:07:41.296Z,9.83
2018-07-27T22:10:27.216Z,10.50
2018-07-27T22:12:56.146Z,10.87
2018-07-27T22:15:25.390Z,10.47
2018-07-27T22:20:44.622Z,10.10
2018-07-27T22:23:12.909Z,10.57
2018-07-27T22:25:41.185Z,10.00
2018-07-27T22:28:09.505Z,10.13
2018-07-27T22:30:37.790Z,10.70
2018-07-27T22:33:06.106Z,10.70
2018-07-27T22:35:34.454Z,10.80
2018-07-27T22:38:02.746Z,11.37
2018-07-27T22:40:31.086Z,10.67
2018-07-27T22:42:59.321Z,10.50
2018-07-27T22:45:27.606Z,10.73
2018-07-27T22:47:55.974Z,10.70
2018-07-27T22:50:24.230Z,10.70
2018-07-27T22:52:52.530Z,10.50
2018-07-27T22:55:20.870Z,11.13
2018-07-27T22:57:49.141Z,10.47
2018-07-27T23:00:17.507Z,11.13
2018-07-27T23:02:45.950Z,11.33
2018-07-27T23:05:14.210Z,11.27
2018-07-27T23:07:42.477Z,11.20
2018-07-27T23:10:11.264Z,10.30
2018-07-27T23:12:39.982Z,11.63
2018-07-27T23:15:09.794Z,10.90
2018-07-27T23:17:38.122Z,11.30
2018-07-27T23:20:09.286Z,11.30
2018-07-27T23:22:37.592Z,11.00
2018-07-27T23:25:06.329Z,10.47
2018-07-27T23:27:39.450Z,11.23
2018-07-27T23:30:09.934Z,12.03
2018-07-27T23:32:38.258Z,11.93
2018-07-27T23:35:06.593Z,12.00
2018-07-27T23:37:34.976Z,11.87
2018-07-27T23:40:03.304Z,11.53
2018-07-27T23:42:31.622Z,12.03
2018-07-27T23:44:59.927Z,12.30
2018-07-27T23:47:28.259Z,10.83
2018-07-27T23:50:14.707Z,11.70
2018-07-27T23:52:43.035Z,11.73
2018-07-27T23:55:11.310Z,12.03
2018-07-27T23:57:39.738Z,11.93
